createdAt,value
2019-01-04T00:01:35.644Z,6.47
2019-01-04T00:04:04.318Z,7.55
2019-01-04T00:06:32.801Z,5.20
2019-01-04T00:09:01.250Z,6.75
2019-01-04T00:11:29.670Z,5.87
2019-01-04T00:13:58.108Z,7.65
2019-01-04T00:16:26.534Z,6.62
2019-01-04T00:18:55.041Z,7.08
2019-01-04T00:21:23.552Z,7.28
2019-01-04T00:23:52.080Z,7.30
2019-01-04T00:26:20.504Z,7.35
2019-01-04T00:28:48.966Z,8.18
2019-01-04T00:31:17.462Z,6.15
2019-01-04T00:33:45.986Z,7.25
2019-01-04T00:36:16.007Z,8.20
2019-01-04T00:38:44.521Z,6.95
2019-01-04T00:41:12.953Z,7.25
2019-01-04T00:43:41.464Z,6.87
2019-01-04T00:46:10.000Z,7.08
2019-01-04T00:48:38.419Z,6.78
2019-01-04T00:51:06.928Z,7.53
2019-01-04T00:53:35.490Z,8.20
2019-01-04T00:56:22.288Z,7.58
2019-01-04T00:59:02.806Z,7.65
2019-01-04T01:01:55.482Z,6.47
2019-01-04T01:04:57.460Z,6.95
2019-01-04T01:07:31.746Z,6.87
2019-01-04T01:10:21.218Z,7.75
2019-01-04T01:12:55.767Z,6.55
2019-01-04T01:15:46.991Z,8.05
2019-01-04T01:18:34.986Z,7.03
2019-01-04T01:21:15.442Z,7.55
2019-01-04T01:24:08.130Z,7.28
2019-01-04T01:26:45.519Z,7.30
2019-01-04T01:29:41.445Z,6.55
2019-01-04T01:32:41.646Z,7.40
2019-01-04T01:35:16.114Z,7.47
2019-01-04T01:37:59.542Z,8.23
2019-01-04T01:40:56.771Z,6.37
2019-01-04T01:44:00.445Z,6.37
2019-01-04T01:46:37.959Z,7.28
2019-01-04T01:49:29.238Z,7.45
2019-01-04T01:52:30.841Z,7.87
2019-01-04T01:54:59.284Z,6.53
2019-01-04T01:57:27.758Z,7.83
2019-01-04T01:59:56.200Z,7.05
2019-01-04T02:02:25.218Z,6.62
2019-01-04T02:04:53.669Z,7.40
2019-01-04T02:07:22.119Z,6.47
2019-01-04T02:09:51.941Z,7.25
2019-01-04T02:12:20.428Z,7.37
2019-01-04T02:14:48.852Z,7.17
2019-01-04T02:17:17.296Z,7.40
2019-01-04T02:19:45.740Z,7.70
2019-01-04T02:22:14.168Z,8.13
2019-01-04T02:24:42.606Z,7.35
2019-01-04T02:27:11.038Z,7.10
2019-01-04T02:29:39.491Z,6.50
2019-01-04T02:32:07.911Z,7.65
2019-01-04T02:34:36.357Z,5.83
2019-01-04T02:37:07.612Z,7.17
2019-01-04T02:39:36.079Z,8.58
2019-01-04T02:42:07.472Z,7.10
2019-01-04T02:44:38.935Z,8.38
2019-01-04T02:47:07.370Z,6.97
2019-01-04T02:49:35.820Z,8.33
2019-01-04T02:52:07.135Z,8.80
2019-01-04T02:54:35.586Z,8.38
2019-01-04T02:57:04.019Z,8.60
2019-01-04T02:59:32.491Z,8.13
2019-01-04T03:02:00.920Z,8.75
2019-01-04T03:04:29.373Z,8.30
2019-01-04T03:06:57.780Z,7.90
2019-01-04T03:09:26.253Z,8.03
2019-01-04T03:11:54.679Z,11.12
2019-01-04T03:14:23.124Z,8.88
2019-01-04T03:16:51.578Z,8.83
2019-01-04T03:19:20.002Z,8.50
2019-01-04T03:21:48.450Z,9.50
2019-01-04T03:24:16.874Z,8.78
2019-01-04T03:26:45.313Z,8.10
2019-01-04T03:29:13.741Z,9.40
2019-01-04T03:31:42.176Z,9.58
2019-01-04T03:34:10.602Z,9.33
2019-01-04T03:36:39.043Z,9.33
2019-01-04T03:39:07.489Z,8.80
2019-01-04T03:41:35.926Z,9.93
2019-01-04T03:44:04.366Z,9.63
2019-01-04T03:46:32.811Z,9.10
2019-01-04T03:49:01.295Z,9.73
2019-01-04T03:51:29.723Z,8.60
2019-01-04T03:53:58.175Z,9.28
2019-01-04T03:56:26.609Z,10.90
2019-01-04T03:58:55.074Z,10.15
2019-01-04T04:01:23.521Z,11.35
2019-01-04T04:03:52.110Z,10.90
2019-01-04T04:06:20.696Z,11.35
2019-01-04T04:08:49.167Z,10.25
2019-01-04T04:11:19.144Z,11.28
2019-01-04T04:13:47.606Z,9.78
2019-01-04T04:16:16.106Z,11.88
2019-01-04T04:18:44.558Z,10.80
2019-01-04T04:21:13.019Z,11.22
2019-01-04T04:23:41.450Z,11.30
2019-01-04T04:26:09.903Z,11.00
2019-01-04T04:28:38.352Z,11.05
2019-01-04T04:31:06.794Z,11.63
2019-01-04T04:33:35.249Z,11.10
2019-01-04T04:36:03.791Z,10.35
2019-01-04T04:38:32.234Z,11.53
2019-01-04T04:41:00.671Z,9.85
2019-01-04T04:43:29.221Z,10.53
2019-01-04T04:45:57.734Z,10.43
2019-01-04T04:48:26.163Z,11.63
2019-01-04T04:50:54.787Z,10.63
2019-01-04T04:53:23.205Z,10.25
2019-01-04T04:55:51.679Z,10.75
2019-01-04T04:58:20.103Z,10.13
2019-01-04T05:00:48.540Z,11.25
2019-01-04T05:03:16.975Z,10.30
2019-01-04T05:05:45.543Z,10.93
2019-01-04T05:08:14.066Z,9.98
2019-01-04T05:10:42.514Z,9.88
2019-01-04T05:13:10.961Z,9.45
2019-01-04T05:15:39.441Z,11.10
2019-01-04T05:18:07.851Z,9.90
2019-01-04T05:20:36.293Z,10.58
2019-01-04T05:23:04.736Z,11.33
2019-01-04T05:25:33.188Z,10.10
2019-01-04T05:28:01.632Z,11.40
2019-01-04T05:30:30.149Z,11.40
2019-01-04T05:32:58.598Z,10.80
2019-01-04T05:35:27.027Z,11.08
2019-01-04T05:37:55.495Z,10.23
2019-01-04T05:40:24.044Z,11.75
2019-01-04T05:42:52.499Z,10.78
2019-01-04T05:45:20.925Z,10.53
2019-01-04T05:47:49.379Z,9.00
2019-01-04T05:50:17.813Z,10.40
2019-01-04T05:52:46.271Z,11.08
2019-01-04T05:55:14.698Z,9.55
2019-01-04T05:57:43.155Z,10.10
2019-01-04T06:00:11.608Z,8.70
2019-01-04T06:02:40.061Z,10.03
2019-01-04T06:05:10.122Z,10.20
2019-01-04T06:07:38.579Z,9.88
2019-01-04T06:10:07.448Z,9.90
2019-01-04T06:12:35.886Z,10.05
2019-01-04T06:15:05.270Z,9.90
2019-01-04T06:17:33.695Z,9.18
2019-01-04T06:20:02.135Z,9.90
2019-01-04T06:22:30.566Z,10.08
2019-01-04T06:24:59.027Z,10.00
2019-01-04T06:27:27.454Z,9.73
2019-01-04T06:29:55.891Z,11.48
2019-01-04T06:32:24.383Z,10.10
2019-01-04T06:34:52.888Z,10.55
2019-01-04T06:37:21.395Z,10.00
2019-01-04T06:39:51.517Z,9.95
2019-01-04T06:42:20.032Z,10.85
2019-01-04T06:44:48.497Z,10.40
2019-01-04T06:47:17.570Z,11.68
2019-01-04T06:49:46.107Z,11.48
2019-01-04T06:52:14.538Z,10.80
2019-01-04T06:55:15.204Z,12.63
2019-01-04T06:57:43.625Z,11.85
2019-01-04T07:00:12.131Z,11.00
2019-01-04T07:02:40.602Z,11.33
2019-01-04T07:05:09.118Z,12.58
2019-01-04T07:07:37.642Z,11.30
2019-01-04T07:10:07.415Z,11.15
2019-01-04T07:12:35.866Z,12.18
2019-01-04T07:15:05.675Z,10.50
2019-01-04T07:17:34.113Z,12.68
2019-01-04T07:20:02.551Z,10.98
2019-01-04T07:22:31.015Z,11.40
2019-01-04T07:24:59.457Z,11.28
2019-01-04T07:27:27.994Z,10.03
2019-01-04T07:29:56.478Z,9.30
2019-01-04T07:32:24.949Z,10.85
2019-01-04T07:34:53.379Z,10.63
2019-01-04T07:37:21.818Z,9.78
2019-01-04T07:39:51.786Z,11.00
2019-01-04T07:42:20.257Z,10.40
2019-01-04T07:44:48.678Z,10.78
2019-01-04T07:47:17.141Z,11.53
2019-01-04T07:49:45.738Z,12.23
2019-01-04T07:52:14.207Z,10.25
2019-01-04T07:54:42.702Z,10.85
2019-01-04T07:57:11.132Z,11.40
2019-01-04T07:59:39.594Z,8.83
2019-01-04T09:03:07.911Z,10.72
2019-01-04T09:05:39.051Z,10.08
2019-01-04T09:08:07.499Z,12.63
2019-01-04T09:10:35.971Z,12.20
2019-01-04T09:13:04.415Z,12.10
2019-01-04T09:15:34.387Z,12.35
2019-01-04T09:18:02.915Z,11.08
2019-01-04T09:20:31.352Z,11.93
2019-01-04T09:22:59.878Z,10.85
2019-01-04T09:25:28.307Z,11.70
2019-01-04T09:27:56.762Z,10.00
2019-01-04T09:30:25.211Z,11.05
2019-01-04T09:32:53.670Z,11.63
2019-01-04T09:35:22.182Z,11.65
2019-01-04T09:37:50.635Z,9.78
2019-01-04T09:40:19.059Z,11.40
2019-01-04T09:42:47.521Z,11.10
2019-01-04T09:45:16.010Z,13.43
2019-01-04T09:47:44.529Z,14.40
2019-01-04T09:50:13.042Z,14.65
2019-01-04T09:52:41.584Z,16.50
2019-01-04T09:55:10.091Z,14.75
2019-01-04T09:57:38.532Z,16.37
2019-01-04T10:00:09.493Z,14.05
2019-01-04T10:02:37.951Z,14.98
2019-01-04T10:05:07.888Z,13.53
2019-01-04T10:07:36.347Z,13.88
2019-01-04T10:10:07.307Z,15.23
2019-01-04T10:12:35.770Z,14.65
2019-01-04T10:15:06.510Z,15.28
2019-01-04T10:17:34.938Z,14.55
2019-01-04T10:20:04.147Z,14.00
2019-01-04T10:22:32.567Z,12.90
2019-01-04T10:25:01.050Z,14.70
2019-01-04T10:27:29.488Z,14.85
2019-01-04T10:29:58.034Z,16.35
2019-01-04T10:32:26.519Z,15.32
2019-01-04T10:34:54.964Z,16.05
2019-01-04T10:37:23.391Z,15.32
2019-01-04T10:39:51.859Z,14.73
2019-01-04T10:42:20.311Z,15.05
2019-01-04T10:44:48.844Z,15.72
2019-01-04T10:47:17.272Z,13.38
2019-01-04T10:49:45.724Z,15.25
2019-01-04T10:52:14.166Z,13.45
2019-01-04T10:54:42.617Z,13.43
2019-01-04T10:57:11.058Z,12.80
2019-01-04T10:59:41.063Z,13.60
2019-01-04T11:02:09.482Z,13.95
2019-01-04T11:04:37.898Z,12.70
2019-01-04T11:07:06.348Z,14.20
2019-01-04T11:09:34.839Z,14.55
2019-01-04T11:12:03.291Z,13.45
2019-01-04T11:14:31.737Z,14.78
2019-01-04T11:17:00.201Z,11.88
2019-01-04T11:19:28.651Z,12.78
2019-01-04T11:22:00.218Z,12.50
2019-01-04T11:24:40.542Z,12.30
2019-01-04T11:27:09.063Z,11.22
2019-01-04T11:29:46.589Z,11.95
2019-01-04T11:32:23.804Z,12.18
2019-01-04T11:35:04.305Z,11.65
2019-01-04T11:37:44.137Z,11.80
2019-01-04T11:40:18.606Z,11.30
2019-01-04T11:43:06.432Z,11.48
2019-01-04T11:45:40.614Z,11.95
2019-01-04T11:48:18.080Z,11.63
2019-01-04T11:51:10.827Z,11.63
2019-01-04T11:53:39.287Z,12.15
2019-01-04T11:56:07.773Z,10.78
2019-01-04T11:58:36.222Z,11.75
2019-01-04T12:01:05.034Z,11.22
2019-01-04T12:03:33.467Z,11.78
2019-01-04T12:06:01.890Z,11.38
2019-01-04T12:08:30.327Z,11.03
2019-01-04T12:10:58.756Z,10.43
2019-01-04T12:13:27.213Z,10.80
2019-01-04T12:15:55.652Z,10.72
2019-01-04T12:18:24.133Z,10.82
2019-01-04T12:20:52.570Z,11.53
2019-01-04T12:23:21.058Z,12.07
2019-01-04T12:25:49.538Z,12.37
2019-01-04T12:28:17.965Z,10.03
2019-01-04T12:30:46.417Z,10.50
2019-01-04T12:33:14.855Z,9.58
2019-01-04T12:35:44.934Z,13.22
2019-01-04T12:38:13.378Z,11.22
2019-01-04T12:40:41.906Z,10.10
2019-01-04T12:43:10.338Z,11.05
2019-01-04T12:45:40.503Z,11.55
2019-01-04T12:48:09.016Z,10.18
2019-01-04T12:50:37.481Z,11.73
2019-01-04T12:53:05.918Z,12.73
2019-01-04T12:55:40.319Z,12.65
2019-01-04T12:58:08.759Z,11.40
2019-01-04T13:00:37.306Z,9.85
2019-01-04T13:03:05.740Z,10.70
2019-01-04T13:05:34.178Z,10.53
2019-01-04T13:08:02.688Z,12.18
2019-01-04T13:10:31.145Z,10.48
2019-01-04T13:12:59.575Z,11.70
2019-01-04T13:15:27.997Z,11.65
2019-01-04T13:17:56.455Z,11.45
2019-01-04T13:20:24.887Z,11.63
2019-01-04T13:22:53.344Z,11.40
2019-01-04T13:25:21.789Z,11.97
2019-01-04T13:27:50.215Z,11.18
2019-01-04T13:30:18.665Z,9.93
2019-01-04T13:32:47.111Z,11.85
2019-01-04T13:35:15.570Z,10.95
2019-01-04T13:37:44.078Z,12.13
2019-01-04T13:40:12.494Z,11.80
2019-01-04T13:42:41.023Z,11.00
2019-01-04T13:45:09.442Z,10.80
2019-01-04T13:47:37.921Z,10.63
2019-01-04T13:50:07.600Z,11.03
2019-01-04T13:52:36.066Z,11.30
2019-01-04T13:55:05.044Z,10.55
2019-01-04T13:57:33.482Z,11.35
2019-01-04T14:00:01.931Z,10.90
2019-01-04T14:02:31.915Z,10.90
2019-01-04T14:05:00.402Z,11.40
2019-01-04T14:07:28.879Z,12.35
2019-01-04T14:09:57.321Z,12.90
2019-01-04T14:12:25.783Z,13.00
2019-01-04T14:14:54.202Z,13.75
2019-01-04T14:17:22.695Z,12.60
2019-01-04T14:19:51.162Z,13.83
2019-01-04T14:22:19.661Z,16.37
2019-01-04T14:24:48.298Z,16.25
2019-01-04T14:27:16.739Z,14.78
2019-01-04T14:29:45.199Z,14.25
2019-01-04T14:32:13.679Z,17.90
2019-01-04T14:34:42.150Z,15.55
2019-01-04T14:37:10.596Z,16.93
2019-01-04T14:39:39.112Z,17.17
2019-01-04T14:42:07.613Z,13.88
2019-01-04T14:44:36.070Z,15.88
2019-01-04T14:47:04.514Z,14.65
2019-01-04T14:49:32.966Z,12.05
2019-01-04T14:52:01.388Z,14.20
2019-01-04T14:54:29.851Z,13.20
2019-01-04T14:56:58.284Z,12.75
2019-01-04T14:59:26.757Z,13.38
2019-01-04T15:01:55.182Z,13.55
2019-01-04T15:04:23.703Z,13.83
2019-01-04T15:06:52.148Z,14.00
2019-01-04T15:09:20.612Z,13.45
2019-01-04T15:11:49.058Z,11.85
2019-01-04T15:14:17.519Z,13.48
2019-01-04T15:16:45.971Z,14.28
2019-01-04T15:19:14.501Z,13.78
2019-01-04T15:21:43.032Z,14.85
2019-01-04T15:24:11.473Z,15.45
2019-01-04T15:26:39.943Z,14.00
2019-01-04T15:29:08.371Z,15.25
2019-01-04T15:31:36.850Z,15.98
2019-01-04T15:34:05.439Z,14.43
2019-01-04T15:36:33.991Z,13.88
2019-01-04T15:39:02.432Z,15.68
2019-01-04T15:41:30.871Z,15.85
2019-01-04T15:43:59.312Z,15.03
2019-01-04T15:46:27.783Z,15.58
2019-01-04T15:48:56.263Z,15.55
2019-01-04T15:51:24.763Z,16.80
2019-01-04T15:53:53.424Z,14.13
2019-01-04T15:56:21.879Z,16.17
2019-01-04T15:58:50.348Z,18.00
2019-01-04T16:01:18.890Z,12.90
2019-01-04T16:03:47.327Z,14.83
2019-01-04T16:06:15.762Z,13.75
2019-01-04T16:08:44.247Z,15.10
2019-01-04T16:11:12.713Z,13.83
2019-01-04T16:13:41.154Z,13.88
2019-01-04T16:16:09.610Z,14.53
2019-01-04T16:18:38.079Z,13.60
2019-01-04T16:21:06.515Z,13.30
2019-01-04T16:23:36.641Z,11.57
2019-01-04T16:26:05.060Z,11.20
2019-01-04T16:28:33.519Z,11.55
2019-01-04T16:31:01.959Z,10.95
2019-01-04T16:33:30.428Z,12.35
2019-01-04T16:35:58.911Z,13.43
2019-01-04T16:38:27.370Z,11.70
2019-01-04T16:40:55.797Z,11.35
2019-01-04T16:43:24.251Z,14.50
2019-01-04T16:45:52.690Z,11.48
2019-01-04T16:48:21.151Z,11.20
2019-01-04T16:50:49.582Z,11.73
2019-01-04T16:53:18.038Z,11.53
2019-01-04T16:55:46.510Z,12.95
2019-01-04T16:58:16.496Z,12.13
2019-01-04T17:00:44.947Z,12.13
2019-01-04T17:03:16.472Z,13.03
2019-01-04T17:05:44.954Z,14.90
2019-01-04T17:08:13.406Z,14.25
2019-01-04T17:10:41.895Z,13.95
2019-01-04T17:13:10.355Z,13.75
2019-01-04T17:15:38.798Z,13.43
2019-01-04T17:18:07.239Z,13.05
2019-01-04T17:20:35.704Z,14.45
2019-01-04T17:23:04.148Z,14.95
2019-01-04T17:25:32.657Z,14.25
2019-01-04T17:28:01.185Z,14.68
2019-01-04T17:30:29.743Z,13.78
2019-01-04T17:32:58.245Z,13.68
2019-01-04T17:35:26.713Z,28.98
2019-01-04T17:37:55.163Z,15.70
2019-01-04T17:40:23.640Z,17.35
2019-01-04T17:42:52.081Z,15.43
2019-01-04T17:45:20.510Z,57.58
2019-01-04T17:47:48.990Z,25.80
2019-01-04T17:50:17.491Z,17.02
2019-01-04T17:52:45.990Z,12.93
2019-01-04T17:55:14.421Z,18.12
2019-01-04T17:57:42.934Z,12.90
2019-01-04T18:00:12.104Z,14.35
2019-01-04T18:02:40.547Z,17.85
2019-01-04T18:05:08.982Z,10.23
2019-01-04T18:07:37.606Z,12.15
2019-01-04T18:10:07.892Z,11.28
2019-01-04T18:12:36.342Z,12.47
2019-01-04T18:15:06.225Z,16.15
2019-01-04T18:17:34.670Z,14.85
2019-01-04T18:20:03.779Z,14.73
2019-01-04T18:22:32.368Z,14.35
2019-01-04T18:25:00.815Z,15.93
2019-01-04T18:27:29.400Z,12.75
2019-01-04T18:29:57.964Z,14.20
2019-01-04T18:32:26.452Z,13.03
2019-01-04T18:34:54.919Z,12.28
2019-01-04T18:37:23.346Z,13.22
2019-01-04T18:39:51.843Z,15.18
2019-01-04T18:42:20.301Z,16.02
2019-01-04T18:44:48.763Z,15.75
2019-01-04T18:47:17.198Z,15.53
2019-01-04T18:49:45.658Z,16.23
2019-01-04T18:52:14.087Z,15.00
2019-01-04T18:54:42.545Z,15.05
2019-01-04T18:57:10.976Z,15.85
2019-01-04T18:59:39.431Z,16.52
2019-01-04T19:02:07.885Z,14.30
2019-01-04T19:04:37.181Z,15.90
2019-01-04T19:07:05.737Z,15.98
2019-01-04T19:09:34.198Z,17.17
2019-01-04T19:12:02.687Z,19.92
2019-01-04T19:14:31.119Z,19.73
2019-01-04T19:16:59.556Z,16.73
2019-01-04T19:19:29.598Z,18.82
2019-01-04T19:21:58.056Z,21.20
2019-01-04T19:24:26.551Z,21.60
2019-01-04T19:26:55.030Z,17.25
2019-01-04T19:29:23.890Z,18.45
2019-01-04T19:31:52.430Z,16.23
2019-01-04T19:34:20.872Z,17.50
2019-01-04T19:36:49.329Z,15.50
2019-01-04T19:39:17.800Z,17.42
2019-01-04T19:41:46.235Z,19.05
2019-01-04T19:44:14.680Z,22.80
2019-01-04T19:46:43.132Z,17.73
2019-01-04T19:49:11.567Z,15.05
2019-01-04T19:51:40.028Z,17.23
2019-01-04T19:54:08.465Z,15.93
2019-01-04T19:56:37.008Z,17.40
2019-01-04T19:59:05.495Z,17.45
2019-01-04T20:01:35.487Z,17.73
2019-01-04T20:04:03.924Z,17.98
2019-01-04T20:06:54.213Z,16.82
2019-01-04T20:09:46.830Z,16.30
2019-01-04T20:12:48.560Z,14.10
2019-01-04T20:15:30.735Z,17.55
2019-01-04T20:18:11.016Z,13.32
2019-01-04T20:20:41.230Z,14.90
2019-01-04T20:23:14.264Z,13.08
2019-01-04T20:25:46.790Z,13.45
2019-01-04T20:28:33.137Z,14.05
2019-01-04T20:31:18.321Z,14.45
2019-01-04T20:34:03.188Z,16.32
2019-01-04T20:36:39.176Z,14.50
2019-01-04T20:39:09.703Z,14.07
2019-01-04T20:41:56.177Z,14.75
2019-01-04T20:44:26.279Z,11.40
2019-01-04T20:47:11.694Z,13.45
2019-01-04T20:49:45.351Z,12.63
2019-01-04T20:52:15.459Z,13.62
2019-01-04T20:55:02.215Z,12.73
2019-01-04T20:57:44.434Z,12.63
2019-01-04T21:00:29.472Z,15.43
2019-01-04T21:02:59.779Z,14.85
2019-01-04T21:05:48.259Z,14.65
2019-01-04T21:08:27.331Z,13.85
2019-01-04T21:11:00.444Z,19.02
2019-01-04T21:13:45.621Z,18.12
2019-01-04T21:16:21.444Z,14.50
2019-01-04T21:19:03.582Z,15.85
2019-01-04T21:21:36.443Z,16.67
2019-01-04T21:24:06.519Z,14.50
2019-01-04T21:26:36.647Z,16.20
2019-01-04T21:29:12.557Z,15.85
2019-01-04T21:31:47.293Z,15.98
2019-01-04T21:34:17.551Z,18.00
2019-01-04T21:36:53.447Z,19.27
2019-01-04T21:39:29.271Z,17.00
2019-01-04T21:42:05.183Z,18.50
2019-01-04T21:44:51.477Z,19.50
2019-01-04T21:47:39.973Z,20.40
2019-01-04T21:50:26.470Z,22.15
2019-01-04T21:53:08.725Z,20.88
2019-01-04T21:55:54.197Z,20.52
2019-01-04T21:58:40.663Z,18.50
2019-01-04T22:01:13.731Z,18.00
2019-01-04T22:03:43.832Z,17.23
2019-01-04T22:06:16.631Z,18.98
2019-01-04T22:08:52.741Z,18.25
2019-01-04T22:11:28.742Z,16.45
2019-01-04T22:14:01.336Z,16.62
2019-01-04T22:16:31.419Z,19.90
2019-01-04T22:19:13.878Z,18.80
2019-01-04T22:21:43.940Z,16.20
2019-01-04T22:24:16.971Z,18.48
2019-01-04T22:26:53.024Z,16.52
2019-01-04T22:29:32.067Z,18.50
2019-01-04T22:32:08.259Z,15.23
2019-01-04T22:34:38.364Z,16.90
2019-01-04T22:37:08.449Z,16.73
2019-01-04T22:39:56.803Z,15.20
2019-01-04T22:42:41.756Z,15.35
2019-01-04T22:45:28.353Z,17.25
2019-01-04T22:47:58.445Z,16.57
2019-01-04T22:50:31.445Z,14.93
2019-01-04T22:53:01.506Z,15.65
2019-01-04T22:55:34.775Z,13.60
2019-01-04T22:58:07.520Z,15.38
2019-01-04T23:00:54.292Z,15.65
2019-01-04T23:03:27.120Z,14.40
2019-01-04T23:06:00.537Z,13.93
2019-01-04T23:08:45.875Z,12.37
2019-01-04T23:11:24.460Z,14.20
2019-01-04T23:14:12.392Z,13.70
2019-01-04T23:16:42.494Z,13.50
2019-01-04T23:19:28.972Z,13.25
2019-01-04T23:22:00.762Z,12.95
2019-01-04T23:24:47.170Z,14.93
2019-01-04T23:27:26.566Z,13.00
2019-01-04T23:29:56.658Z,11.33
2019-01-04T23:32:29.483Z,11.60
2019-01-04T23:35:16.046Z,11.45
2019-01-04T23:37:55.796Z,11.97
2019-01-04T23:40:41.971Z,11.25
2019-01-04T23:43:26.818Z,12.65
2019-01-04T23:46:12.238Z,11.53
2019-01-04T23:48:45.299Z,11.50
2019-01-04T23:51:18.915Z,11.20
2019-01-04T23:53:57.844Z,11.73
2019-01-04T23:56:44.671Z,11.65
2019-01-04T23:59:29.780Z,10.60
